sensor_id;sensor_type;location;lat;lon;timestamp;pressure;altitude;pressure_sealevel;temperature;humidity
51067;BME280;37112;45.892;-123.962;2022-08-21T00:01:44;101457.60;;;21.11;74.61
51067;BME280;37112;45.892;-123.962;2022-08-21T00:04:02;101460.29;;;21.13;74.40
51067;BME280;37112;45.892;-123.962;2022-08-21T00:06:16;101459.88;;;21.14;74.16
51067;BME280;37112;45.892;-123.962;2022-08-21T00:08:30;101458.91;;;21.11;73.68
51067;BME280;37112;45.892;-123.962;2022-08-21T00:10:44;101459.10;;;21.07;74.08
51067;BME280;37112;45.892;-123.962;2022-08-21T00:12:57;101455.52;;;21.03;73.51
51067;BME280;37112;45.892;-123.962;2022-08-21T00:15:12;101454.73;;;20.95;73.64
51067;BME280;37112;45.892;-123.962;2022-08-21T00:17:26;101452.50;;;20.91;73.61
51067;BME280;37112;45.892;-123.962;2022-08-21T00:19:40;101450.61;;;20.82;73.90
51067;BME280;37112;45.892;-123.962;2022-08-21T00:21:54;101445.52;;;20.79;74.28
51067;BME280;37112;45.892;-123.962;2022-08-21T00:24:08;101445.34;;;20.79;74.40
51067;BME280;37112;45.892;-123.962;2022-08-21T00:26:21;101442.48;;;20.78;74.49
51067;BME280;37112;45.892;-123.962;2022-08-21T00:28:34;101445.60;;;20.85;74.91
51067;BME280;37112;45.892;-123.962;2022-08-21T00:30:48;101443.38;;;20.88;74.60
51067;BME280;37112;45.892;-123.962;2022-08-21T00:33:02;101442.84;;;20.88;74.32
51067;BME280;37112;45.892;-123.962;2022-08-21T00:35:20;101443.63;;;20.91;74.68
51067;BME280;37112;45.892;-123.962;2022-08-21T00:37:34;101442.98;;;20.97;75.05
51067;BME280;37112;45.892;-123.962;2022-08-21T00:39:47;101441.40;;;20.98;74.26
51067;BME280;37112;45.892;-123.962;2022-08-21T00:42:01;101438.40;;;20.89;73.61
51067;BME280;37112;45.892;-123.962;2022-08-21T00:44:15;101438.09;;;20.82;73.88
51067;BME280;37112;45.892;-123.962;2022-08-21T00:46:28;101436.24;;;20.80;74.28
51067;BME280;37112;45.892;-123.962;2022-08-21T00:48:41;101438.67;;;20.82;74.58
51067;BME280;37112;45.892;-123.962;2022-08-21T00:50:58;101442.58;;;20.91;75.14
51067;BME280;37112;45.892;-123.962;2022-08-21T00:53:13;101444.91;;;20.96;74.81
51067;BME280;37112;45.892;-123.962;2022-08-21T00:55:26;101447.06;;;21.01;74.77
51067;BME280;37112;45.892;-123.962;2022-08-21T00:57:43;101444.36;;;21.07;74.87
51067;BME280;37112;45.892;-123.962;2022-08-21T01:00:01;101441.75;;;21.11;74.89
51067;BME280;37112;45.892;-123.962;2022-08-21T01:02:18;101440.13;;;21.13;74.75
51067;BME280;37112;45.892;-123.962;2022-08-21T01:04:32;101442.30;;;21.09;74.25
51067;BME280;37112;45.892;-123.962;2022-08-21T01:06:46;101441.07;;;21.05;74.33
51067;BME280;37112;45.892;-123.962;2022-08-21T01:08:59;101441.88;;;21.01;74.10
51067;BME280;37112;45.892;-123.962;2022-08-21T01:11:12;101441.95;;;21.00;74.43
51067;BME280;37112;45.892;-123.962;2022-08-21T01:13:27;101439.05;;;21.00;74.65
51067;BME280;37112;45.892;-123.962;2022-08-21T01:15:44;101440.23;;;21.01;74.67
51067;BME280;37112;45.892;-123.962;2022-08-21T01:17:59;101441.05;;;20.93;74.40
51067;BME280;37112;45.892;-123.962;2022-08-21T01:20:13;101438.55;;;20.96;75.06
51067;BME280;37112;45.892;-123.962;2022-08-21T01:22:27;101437.84;;;20.96;74.54
51067;BME280;37112;45.892;-123.962;2022-08-21T01:24:40;101436.39;;;20.96;74.45
51067;BME280;37112;45.892;-123.962;2022-08-21T01:26:53;101433.23;;;20.97;74.64
51067;BME280;37112;45.892;-123.962;2022-08-21T01:29:11;101433.13;;;21.02;74.67
51067;BME280;37112;45.892;-123.962;2022-08-21T01:31:27;101431.90;;;21.02;74.74
51067;BME280;37112;45.892;-123.962;2022-08-21T01:33:42;101430.79;;;21.09;74.87
51067;BME280;37112;45.892;-123.962;2022-08-21T01:35:55;101428.59;;;21.13;74.86
51067;BME280;37112;45.892;-123.962;2022-08-21T01:38:09;101424.41;;;21.16;74.51
51067;BME280;37112;45.892;-123.962;2022-08-21T01:40:22;101421.34;;;21.16;74.31
51067;BME280;37112;45.892;-123.962;2022-08-21T01:42:36;101417.61;;;21.18;74.50
51067;BME280;37112;45.892;-123.962;2022-08-21T01:44:49;101415.30;;;21.12;73.93
51067;BME280;37112;45.892;-123.962;2022-08-21T01:47:08;101418.01;;;21.10;74.20
51067;BME280;37112;45.892;-123.962;2022-08-21T01:49:21;101422.65;;;21.11;74.27
51067;BME280;37112;45.892;-123.962;2022-08-21T01:51:34;101423.89;;;21.07;74.24
51067;BME280;37112;45.892;-123.962;2022-08-21T01:53:48;101421.58;;;21.07;74.18
51067;BME280;37112;45.892;-123.962;2022-08-21T01:56:00;101423.83;;;21.03;73.69
51067;BME280;37112;45.892;-123.962;2022-08-21T01:58:20;101424.55;;;20.99;74.15
51067;BME280;37112;45.892;-123.962;2022-08-21T02:00:34;101426.13;;;20.94;73.71
51067;BME280;37112;45.892;-123.962;2022-08-21T02:02:48;101433.42;;;20.86;73.45
51067;BME280;37112;45.892;-123.962;2022-08-21T02:05:01;101428.45;;;20.73;73.69
51067;BME280;37112;45.892;-123.962;2022-08-21T02:07:14;101426.73;;;20.63;74.06
51067;BME280;37112;45.892;-123.962;2022-08-21T02:09:27;101425.90;;;20.56;74.16
51067;BME280;37112;45.892;-123.962;2022-08-21T02:11:41;101425.47;;;20.50;74.19
51067;BME280;37112;45.892;-123.962;2022-08-21T02:13:54;101426.34;;;20.43;74.45
51067;BME280;37112;45.892;-123.962;2022-08-21T02:16:07;101428.29;;;20.32;74.30
51067;BME280;37112;45.892;-123.962;2022-08-21T02:18:25;101424.11;;;20.23;74.54
51067;BME280;37112;45.892;-123.962;2022-08-21T02:20:41;101429.22;;;20.20;75.13
51067;BME280;37112;45.892;-123.962;2022-08-21T02:22:56;101428.50;;;20.15;75.06
51067;BME280;37112;45.892;-123.962;2022-08-21T02:25:09;101424.84;;;20.08;75.17
51067;BME280;37112;45.892;-123.962;2022-08-21T02:27:23;101424.59;;;20.03;75.24
51067;BME280;37112;45.892;-123.962;2022-08-21T02:29:37;101422.34;;;19.97;75.26
51067;BME280;37112;45.892;-123.962;2022-08-21T02:31:50;101421.02;;;19.92;75.48
51067;BME280;37112;45.892;-123.962;2022-08-21T02:34:03;101423.04;;;19.89;75.71
51067;BME280;37112;45.892;-123.962;2022-08-21T02:36:17;101426.32;;;19.87;75.72
51067;BME280;37112;45.892;-123.962;2022-08-21T02:38:32;101424.77;;;19.85;75.75
51067;BME280;37112;45.892;-123.962;2022-08-21T02:40:49;101429.98;;;19.83;75.88
51067;BME280;37112;45.892;-123.962;2022-08-21T02:43:05;101433.70;;;19.82;76.05
51067;BME280;37112;45.892;-123.962;2022-08-21T02:45:20;101431.84;;;19.81;76.06
51067;BME280;37112;45.892;-123.962;2022-08-21T02:47:33;101435.02;;;19.81;76.23
51067;BME280;37112;45.892;-123.962;2022-08-21T02:49:46;101435.19;;;19.77;75.95
51067;BME280;37112;45.892;-123.962;2022-08-21T02:52:00;101437.14;;;19.74;76.08
51067;BME280;37112;45.892;-123.962;2022-08-21T02:54:13;101436.23;;;19.72;76.40
51067;BME280;37112;45.892;-123.962;2022-08-21T02:56:26;101434.90;;;19.71;76.28
51067;BME280;37112;45.892;-123.962;2022-08-21T02:58:42;101433.69;;;19.70;76.21
51067;BME280;37112;45.892;-123.962;2022-08-21T03:00:56;101432.77;;;19.67;76.14
51067;BME280;37112;45.892;-123.962;2022-08-21T03:03:09;101430.27;;;19.63;76.37
51067;BME280;37112;45.892;-123.962;2022-08-21T03:05:23;101430.48;;;19.62;76.48
51067;BME280;37112;45.892;-123.962;2022-08-21T03:07:36;101432.75;;;19.61;76.56
51067;BME280;37112;45.892;-123.962;2022-08-21T03:09:50;101436.02;;;19.59;76.51
51067;BME280;37112;45.892;-123.962;2022-08-21T03:12:04;101435.67;;;19.55;76.63
51067;BME280;37112;45.892;-123.962;2022-08-21T03:14:18;101438.70;;;19.51;76.81
51067;BME280;37112;45.892;-123.962;2022-08-21T03:16:31;101437.67;;;19.51;77.08
51067;BME280;37112;45.892;-123.962;2022-08-21T03:18:44;101438.41;;;19.51;77.14
51067;BME280;37112;45.892;-123.962;2022-08-21T03:20:57;101438.10;;;19.50;77.38
51067;BME280;37112;45.892;-123.962;2022-08-21T03:23:11;101434.11;;;19.50;77.57
51067;BME280;37112;45.892;-123.962;2022-08-21T03:25:28;101432.30;;;19.50;77.65
51067;BME280;37112;45.892;-123.962;2022-08-21T03:27:49;101434.11;;;19.52;77.65
51067;BME280;37112;45.892;-123.962;2022-08-21T03:30:10;101430.64;;;19.55;77.78
51067;BME280;37112;45.892;-123.962;2022-08-21T03:32:24;101437.70;;;19.59;77.75
51067;BME280;37112;45.892;-123.962;2022-08-21T03:34:37;101445.13;;;19.58;77.40
51067;BME280;37112;45.892;-123.962;2022-08-21T03:36:51;101442.58;;;19.54;77.23
51067;BME280;37112;45.892;-123.962;2022-08-21T03:39:05;101445.63;;;19.52;77.27
51067;BME280;37112;45.892;-123.962;2022-08-21T03:41:18;101444.16;;;19.51;77.43
51067;BME280;37112;45.892;-123.962;2022-08-21T03:43:32;101449.73;;;19.51;77.64
51067;BME280;37112;45.892;-123.962;2022-08-21T03:45:45;101446.55;;;19.50;77.60
51067;BME280;37112;45.892;-123.962;2022-08-21T03:48:03;101449.00;;;19.53;77.79
51067;BME280;37112;45.892;-123.962;2022-08-21T03:50:17;101451.91;;;19.53;77.70
51067;BME280;37112;45.892;-123.962;2022-08-21T03:52:31;101453.71;;;19.51;77.79
51067;BME280;37112;45.892;-123.962;2022-08-21T03:54:45;101454.81;;;19.48;77.96
51067;BME280;37112;45.892;-123.962;2022-08-21T03:56:58;101455.49;;;19.47;77.97
51067;BME280;37112;45.892;-123.962;2022-08-21T03:59:12;101456.67;;;19.46;77.93
51067;BME280;37112;45.892;-123.962;2022-08-21T04:01:25;101460.42;;;19.46;77.97
51067;BME280;37112;45.892;-123.962;2022-08-21T04:03:39;101464.98;;;19.44;77.98
51067;BME280;37112;45.892;-123.962;2022-08-21T04:05:52;101468.67;;;19.39;77.93
51067;BME280;37112;45.892;-123.962;2022-08-21T04:08:07;101467.42;;;19.37;78.24
51067;BME280;37112;45.892;-123.962;2022-08-21T04:10:20;101471.56;;;19.33;78.13
51067;BME280;37112;45.892;-123.962;2022-08-21T04:12:34;101474.13;;;19.31;78.48
51067;BME280;37112;45.892;-123.962;2022-08-21T04:14:48;101474.85;;;19.27;78.58
51067;BME280;37112;45.892;-123.962;2022-08-21T04:17:02;101476.05;;;19.22;78.90
51067;BME280;37112;45.892;-123.962;2022-08-21T04:19:15;101474.02;;;19.18;79.04
51067;BME280;37112;45.892;-123.962;2022-08-21T04:21:29;101475.48;;;19.14;78.99
51067;BME280;37112;45.892;-123.962;2022-08-21T04:23:43;101478.05;;;19.12;79.17
51067;BME280;37112;45.892;-123.962;2022-08-21T04:25:57;101478.65;;;19.09;79.36
51067;BME280;37112;45.892;-123.962;2022-08-21T04:28:11;101477.47;;;19.04;79.18
51067;BME280;37112;45.892;-123.962;2022-08-21T04:30:24;101484.54;;;19.00;79.49
51067;BME280;37112;45.892;-123.962;2022-08-21T04:32:38;101486.13;;;18.94;79.59
51067;BME280;37112;45.892;-123.962;2022-08-21T04:34:56;101490.71;;;18.91;79.87
51067;BME280;37112;45.892;-123.962;2022-08-21T04:37:10;101493.04;;;18.89;79.99
51067;BME280;37112;45.892;-123.962;2022-08-21T04:39:23;101493.98;;;18.87;80.01
51067;BME280;37112;45.892;-123.962;2022-08-21T04:41:38;101496.89;;;18.83;79.99
51067;BME280;37112;45.892;-123.962;2022-08-21T04:43:55;101502.56;;;18.80;80.38
51067;BME280;37112;45.892;-123.962;2022-08-21T04:46:08;101508.50;;;18.78;80.51
51067;BME280;37112;45.892;-123.962;2022-08-21T04:48:23;101508.79;;;18.72;80.28
51067;BME280;37112;45.892;-123.962;2022-08-21T04:50:39;101508.65;;;18.70;80.47
51067;BME280;37112;45.892;-123.962;2022-08-21T04:52:54;101508.29;;;18.68;80.50
51067;BME280;37112;45.892;-123.962;2022-08-21T04:55:08;101504.45;;;18.67;80.53
51067;BME280;37112;45.892;-123.962;2022-08-21T04:57:22;101501.26;;;18.66;80.66
51067;BME280;37112;45.892;-123.962;2022-08-21T04:59:57;101506.88;;;18.65;80.76
51067;BME280;37112;45.892;-123.962;2022-08-21T05:02:10;101509.08;;;18.64;80.82
51067;BME280;37112;45.892;-123.962;2022-08-21T05:04:26;101508.71;;;18.61;80.96
51067;BME280;37112;45.892;-123.962;2022-08-21T05:06:44;101514.27;;;18.59;81.04
51067;BME280;37112;45.892;-123.962;2022-08-21T05:08:59;101510.27;;;18.57;81.19
51067;BME280;37112;45.892;-123.962;2022-08-21T05:11:14;101507.16;;;18.57;81.44
51067;BME280;37112;45.892;-123.962;2022-08-21T05:13:27;101505.15;;;18.60;81.47
51067;BME280;37112;45.892;-123.962;2022-08-21T05:15:41;101504.16;;;18.63;81.77
51067;BME280;37112;45.892;-123.962;2022-08-21T05:17:54;101502.26;;;18.67;81.72
51067;BME280;37112;45.892;-123.962;2022-08-21T05:20:11;101505.89;;;18.69;81.53
51067;BME280;37112;45.892;-123.962;2022-08-21T05:22:25;101503.48;;;18.70;81.47
51067;BME280;37112;45.892;-123.962;2022-08-21T05:24:39;101502.23;;;18.73;81.55
51067;BME280;37112;45.892;-123.962;2022-08-21T05:26:52;101497.55;;;18.75;81.70
51067;BME280;37112;45.892;-123.962;2022-08-21T05:29:05;101495.89;;;18.78;81.79
51067;BME280;37112;45.892;-123.962;2022-08-21T05:31:21;101493.92;;;18.81;81.75
51067;BME280;37112;45.892;-123.962;2022-08-21T05:33:34;101494.10;;;18.84;81.70
51067;BME280;37112;45.892;-123.962;2022-08-21T05:35:54;101492.48;;;18.84;81.56
51067;BME280;37112;45.892;-123.962;2022-08-21T05:38:08;101499.08;;;18.82;81.48
51067;BME280;37112;45.892;-123.962;2022-08-21T05:40:27;101496.83;;;18.81;81.53
51067;BME280;37112;45.892;-123.962;2022-08-21T05:42:40;101496.54;;;18.82;81.60
51067;BME280;37112;45.892;-123.962;2022-08-21T05:45:03;101490.17;;;18.83;81.54
51067;BME280;37112;45.892;-123.962;2022-08-21T05:47:16;101489.48;;;18.83;81.37
51067;BME280;37112;45.892;-123.962;2022-08-21T05:49:29;101490.07;;;18.78;80.78
51067;BME280;37112;45.892;-123.962;2022-08-21T05:51:44;101490.95;;;18.77;80.89
51067;BME280;37112;45.892;-123.962;2022-08-21T05:53:57;101493.67;;;18.76;81.02
51067;BME280;37112;45.892;-123.962;2022-08-21T05:56:11;101498.17;;;18.77;81.23
51067;BME280;37112;45.892;-123.962;2022-08-21T05:58:25;101501.55;;;18.77;81.28
51067;BME280;37112;45.892;-123.962;2022-08-21T06:00:38;101504.08;;;18.79;81.60
51067;BME280;37112;45.892;-123.962;2022-08-21T06:02:51;101505.60;;;18.80;81.44
51067;BME280;37112;45.892;-123.962;2022-08-21T06:05:06;101507.02;;;18.78;81.23
51067;BME280;37112;45.892;-123.962;2022-08-21T06:07:19;101509.98;;;18.77;81.27
51067;BME280;37112;45.892;-123.962;2022-08-21T06:09:32;101513.02;;;18.77;81.33
51067;BME280;37112;45.892;-123.962;2022-08-21T06:11:45;101516.80;;;18.77;81.54
51067;BME280;37112;45.892;-123.962;2022-08-21T06:13:58;101523.39;;;18.76;81.34
51067;BME280;37112;45.892;-123.962;2022-08-21T06:16:14;101527.11;;;18.73;81.23
51067;BME280;37112;45.892;-123.962;2022-08-21T06:18:28;101524.41;;;18.71;81.23
51067;BME280;37112;45.892;-123.962;2022-08-21T06:20:41;101529.30;;;18.71;81.32
51067;BME280;37112;45.892;-123.962;2022-08-21T06:22:55;101530.29;;;18.71;81.44
51067;BME280;37112;45.892;-123.962;2022-08-21T06:25:09;101528.73;;;18.71;81.54
51067;BME280;37112;45.892;-123.962;2022-08-21T06:27:22;101526.63;;;18.72;81.78
51067;BME280;37112;45.892;-123.962;2022-08-21T06:29:36;101524.50;;;18.70;81.58
51067;BME280;37112;45.892;-123.962;2022-08-21T06:31:53;101519.70;;;18.69;81.54
51067;BME280;37112;45.892;-123.962;2022-08-21T06:34:07;101518.65;;;18.66;81.14
51067;BME280;37112;45.892;-123.962;2022-08-21T06:36:20;101518.44;;;18.60;81.09
51067;BME280;37112;45.892;-123.962;2022-08-21T06:38:33;101516.40;;;18.57;81.26
51067;BME280;37112;45.892;-123.962;2022-08-21T06:40:47;101517.77;;;18.54;81.49
51067;BME280;37112;45.892;-123.962;2022-08-21T06:43:06;101518.44;;;18.53;81.67
51067;BME280;37112;45.892;-123.962;2022-08-21T06:45:23;101521.11;;;18.53;81.93
51067;BME280;37112;45.892;-123.962;2022-08-21T06:47:40;101522.75;;;18.53;81.98
51067;BME280;37112;45.892;-123.962;2022-08-21T06:49:53;101523.83;;;18.53;82.19
51067;BME280;37112;45.892;-123.962;2022-08-21T06:52:10;101521.70;;;18.50;82.27
51067;BME280;37112;45.892;-123.962;2022-08-21T06:54:24;101519.86;;;18.49;82.26
51067;BME280;37112;45.892;-123.962;2022-08-21T06:56:37;101522.77;;;18.48;82.52
51067;BME280;37112;45.892;-123.962;2022-08-21T06:58:50;101524.23;;;18.48;82.61
51067;BME280;37112;45.892;-123.962;2022-08-21T07:01:03;101522.80;;;18.50;82.72
51067;BME280;37112;45.892;-123.962;2022-08-21T07:03:27;101524.20;;;18.50;82.79
51067;BME280;37112;45.892;-123.962;2022-08-21T07:05:41;101521.42;;;18.51;82.79
51067;BME280;37112;45.892;-123.962;2022-08-21T07:07:54;101521.64;;;18.50;82.84
51067;BME280;37112;45.892;-123.962;2022-08-21T07:10:08;101521.08;;;18.49;82.75
51067;BME280;37112;45.892;-123.962;2022-08-21T07:12:30;101523.48;;;18.48;83.03
51067;BME280;37112;45.892;-123.962;2022-08-21T07:14:43;101520.70;;;18.47;82.87
51067;BME280;37112;45.892;-123.962;2022-08-21T07:16:57;101526.31;;;18.45;82.84
51067;BME280;37112;45.892;-123.962;2022-08-21T07:19:10;101527.74;;;18.43;82.99
51067;BME280;37112;45.892;-123.962;2022-08-21T07:21:23;101530.72;;;18.42;83.08
51067;BME280;37112;45.892;-123.962;2022-08-21T07:23:39;101528.96;;;18.41;83.27
51067;BME280;37112;45.892;-123.962;2022-08-21T07:25:53;101527.48;;;18.40;83.12
51067;BME280;37112;45.892;-123.962;2022-08-21T07:28:07;101524.08;;;18.40;83.16
51067;BME280;37112;45.892;-123.962;2022-08-21T07:30:21;101521.20;;;18.37;83.09
51067;BME280;37112;45.892;-123.962;2022-08-21T07:32:34;101519.05;;;18.37;83.22
51067;BME280;37112;45.892;-123.962;2022-08-21T07:34:47;101522.55;;;18.36;83.39
51067;BME280;37112;45.892;-123.962;2022-08-21T07:37:01;101520.79;;;18.36;83.21
51067;BME280;37112;45.892;-123.962;2022-08-21T07:39:18;101519.61;;;18.35;83.25
51067;BME280;37112;45.892;-123.962;2022-08-21T07:41:32;101519.70;;;18.34;83.28
51067;BME280;37112;45.892;-123.962;2022-08-21T07:43:46;101517.08;;;18.31;83.23
51067;BME280;37112;45.892;-123.962;2022-08-21T07:46:01;101519.42;;;18.29;83.12
51067;BME280;37112;45.892;-123.962;2022-08-21T07:48:15;101520.30;;;18.27;83.33
51067;BME280;37112;45.892;-123.962;2022-08-21T07:50:28;101521.76;;;18.27;83.24
51067;BME280;37112;45.892;-123.962;2022-08-21T07:52:42;101521.77;;;18.27;83.58
51067;BME280;37112;45.892;-123.962;2022-08-21T07:54:55;101522.33;;;18.27;83.39
51067;BME280;37112;45.892;-123.962;2022-08-21T07:57:14;101524.53;;;18.26;83.45
51067;BME280;37112;45.892;-123.962;2022-08-21T07:59:30;101527.77;;;18.24;83.43
51067;BME280;37112;45.892;-123.962;2022-08-21T08:01:43;101525.32;;;18.21;83.18
51067;BME280;37112;45.892;-123.962;2022-08-21T08:03:56;101527.02;;;18.18;83.13
51067;BME280;37112;45.892;-123.962;2022-08-21T08:06:10;101530.34;;;18.16;83.35
51067;BME280;37112;45.892;-123.962;2022-08-21T08:08:23;101532.11;;;18.14;83.42
51067;BME280;37112;45.892;-123.962;2022-08-21T08:10:36;101527.14;;;18.10;83.36
51067;BME280;37112;45.892;-123.962;2022-08-21T08:12:52;101531.63;;;18.08;83.41
51067;BME280;37112;45.892;-123.962;2022-08-21T08:15:09;101526.87;;;18.05;83.51
51067;BME280;37112;45.892;-123.962;2022-08-21T08:17:22;101527.41;;;18.03;83.64
51067;BME280;37112;45.892;-123.962;2022-08-21T08:19:35;101526.52;;;18.01;83.78
51067;BME280;37112;45.892;-123.962;2022-08-21T08:21:49;101530.07;;;18.01;84.01
51067;BME280;37112;45.892;-123.962;2022-08-21T08:24:02;101532.17;;;18.02;84.04
51067;BME280;37112;45.892;-123.962;2022-08-21T08:26:28;101532.98;;;18.01;84.06
51067;BME280;37112;45.892;-123.962;2022-08-21T08:28:41;101532.14;;;18.00;84.31
51067;BME280;37112;45.892;-123.962;2022-08-21T08:30:54;101530.77;;;18.00;84.19
51067;BME280;37112;45.892;-123.962;2022-08-21T08:33:07;101534.85;;;17.98;84.18
51067;BME280;37112;45.892;-123.962;2022-08-21T08:35:20;101532.27;;;17.97;84.33
51067;BME280;37112;45.892;-123.962;2022-08-21T08:37:35;101535.11;;;17.97;84.53
51067;BME280;37112;45.892;-123.962;2022-08-21T08:39:51;101534.00;;;17.98;84.69
51067;BME280;37112;45.892;-123.962;2022-08-21T08:42:08;101536.55;;;17.97;84.67
51067;BME280;37112;45.892;-123.962;2022-08-21T08:44:43;101533.73;;;17.96;84.75
51067;BME280;37112;45.892;-123.962;2022-08-21T08:46:59;101532.07;;;17.97;84.76
51067;BME280;37112;45.892;-123.962;2022-08-21T08:49:17;101525.05;;;17.97;84.93
51067;BME280;37112;45.892;-123.962;2022-08-21T08:51:42;101522.91;;;17.97;84.99
51067;BME280;37112;45.892;-123.962;2022-08-21T08:54:03;101520.35;;;17.96;84.89
51067;BME280;37112;45.892;-123.962;2022-08-21T08:56:22;101518.05;;;17.95;85.04
51067;BME280;37112;45.892;-123.962;2022-08-21T08:58:41;101523.13;;;17.97;85.15
51067;BME280;37112;45.892;-123.962;2022-08-21T09:00:56;101519.02;;;17.96;85.06
51067;BME280;37112;45.892;-123.962;2022-08-21T09:03:09;101520.20;;;17.95;84.91
51067;BME280;37112;45.892;-123.962;2022-08-21T09:05:24;101517.70;;;17.95;84.85
51067;BME280;37112;45.892;-123.962;2022-08-21T09:07:46;101518.28;;;17.97;85.30
51067;BME280;37112;45.892;-123.962;2022-08-21T09:10:12;101518.19;;;17.98;85.40
51067;BME280;37112;45.892;-123.962;2022-08-21T09:12:36;101514.80;;;17.99;85.23
51067;BME280;37112;45.892;-123.962;2022-08-21T09:15:01;101509.98;;;17.99;85.06
51067;BME280;37112;45.892;-123.962;2022-08-21T09:17:23;101514.56;;;17.98;85.10
51067;BME280;37112;45.892;-123.962;2022-08-21T09:19:48;101512.35;;;17.99;85.28
51067;BME280;37112;45.892;-123.962;2022-08-21T09:22:13;101511.46;;;18.01;85.35
51067;BME280;37112;45.892;-123.962;2022-08-21T09:24:33;101514.46;;;18.03;85.44
51067;BME280;37112;45.892;-123.962;2022-08-21T09:26:57;101513.35;;;18.06;85.44
51067;BME280;37112;45.892;-123.962;2022-08-21T09:29:13;101518.60;;;18.08;85.48
51067;BME280;37112;45.892;-123.962;2022-08-21T09:31:32;101518.09;;;18.09;85.40
51067;BME280;37112;45.892;-123.962;2022-08-21T09:33:47;101516.44;;;18.12;85.30
51067;BME280;37112;45.892;-123.962;2022-08-21T09:36:01;101514.42;;;18.12;85.27
51067;BME280;37112;45.892;-123.962;2022-08-21T09:38:28;101516.25;;;18.12;85.14
51067;BME280;37112;45.892;-123.962;2022-08-21T09:40:43;101518.16;;;18.13;85.13
51067;BME280;37112;45.892;-123.962;2022-08-21T09:43:01;101514.20;;;18.10;84.97
51067;BME280;37112;45.892;-123.962;2022-08-21T09:45:17;101515.77;;;18.11;84.95
51067;BME280;37112;45.892;-123.962;2022-08-21T09:47:30;101517.07;;;18.13;85.25
51067;BME280;37112;45.892;-123.962;2022-08-21T09:49:44;101517.74;;;18.14;85.11
51067;BME280;37112;45.892;-123.962;2022-08-21T09:51:58;101526.73;;;18.13;85.21
51067;BME280;37112;45.892;-123.962;2022-08-21T09:54:17;101523.11;;;18.14;85.14
51067;BME280;37112;45.892;-123.962;2022-08-21T09:56:34;101524.29;;;18.15;85.08
51067;BME280;37112;45.892;-123.962;2022-08-21T09:59:15;101529.29;;;18.15;85.00
51067;BME280;37112;45.892;-123.962;2022-08-21T10:01:29;101527.47;;;18.16;85.09
51067;BME280;37112;45.892;-123.962;2022-08-21T10:03:42;101527.42;;;18.16;85.01
51067;BME280;37112;45.892;-123.962;2022-08-21T10:06:00;101526.23;;;18.17;85.12
51067;BME280;37112;45.892;-123.962;2022-08-21T10:08:19;101525.85;;;18.17;85.14
51067;BME280;37112;45.892;-123.962;2022-08-21T10:10:36;101525.88;;;18.15;84.83
51067;BME280;37112;45.892;-123.962;2022-08-21T10:12:54;101524.95;;;18.13;84.85
51067;BME280;37112;45.892;-123.962;2022-08-21T10:15:15;101522.23;;;18.11;84.81
51067;BME280;37112;45.892;-123.962;2022-08-21T10:17:36;101524.70;;;18.10;84.67
51067;BME280;37112;45.892;-123.962;2022-08-21T10:19:59;101523.98;;;18.07;84.69
51067;BME280;37112;45.892;-123.962;2022-08-21T10:22:23;101521.91;;;18.06;84.74
51067;BME280;37112;45.892;-123.962;2022-08-21T10:24:49;101521.58;;;18.06;84.88
51067;BME280;37112;45.892;-123.962;2022-08-21T10:27:05;101519.86;;;18.05;84.68
51067;BME280;37112;45.892;-123.962;2022-08-21T10:29:32;101521.16;;;18.03;84.78
51067;BME280;37112;45.892;-123.962;2022-08-21T10:31:57;101520.61;;;18.03;85.03
51067;BME280;37112;45.892;-123.962;2022-08-21T10:34:40;101521.39;;;18.02;85.00
51067;BME280;37112;45.892;-123.962;2022-08-21T10:37:07;101522.55;;;18.03;85.32
51067;BME280;37112;45.892;-123.962;2022-08-21T10:39:30;101520.44;;;18.05;85.49
51067;BME280;37112;45.892;-123.962;2022-08-21T10:42:02;101519.76;;;18.07;85.55
51067;BME280;37112;45.892;-123.962;2022-08-21T10:44:27;101525.66;;;18.07;85.53
51067;BME280;37112;45.892;-123.962;2022-08-21T10:46:50;101522.60;;;18.07;85.49
51067;BME280;37112;45.892;-123.962;2022-08-21T10:49:14;101526.11;;;18.08;85.46
51067;BME280;37112;45.892;-123.962;2022-08-21T10:51:35;101527.14;;;18.08;85.60
51067;BME280;37112;45.892;-123.962;2022-08-21T10:53:57;101526.15;;;18.09;85.60
51067;BME280;37112;45.892;-123.962;2022-08-21T10:56:19;101523.48;;;18.09;85.57
51067;BME280;37112;45.892;-123.962;2022-08-21T10:58:40;101523.14;;;18.07;85.49
51067;BME280;37112;45.892;-123.962;2022-08-21T11:00:58;101517.45;;;18.06;85.52
51067;BME280;37112;45.892;-123.962;2022-08-21T11:03:16;101520.46;;;18.04;85.43
51067;BME280;37112;45.892;-123.962;2022-08-21T11:05:33;101518.98;;;18.05;85.64
51067;BME280;37112;45.892;-123.962;2022-08-21T11:07:51;101516.54;;;18.04;85.50
51067;BME280;37112;45.892;-123.962;2022-08-21T11:10:14;101514.44;;;18.03;85.56
51067;BME280;37112;45.892;-123.962;2022-08-21T11:12:34;101515.38;;;18.03;85.58
51067;BME280;37112;45.892;-123.962;2022-08-21T11:14:55;101517.45;;;18.02;85.45
51067;BME280;37112;45.892;-123.962;2022-08-21T11:17:13;101514.33;;;18.01;85.46
51067;BME280;37112;45.892;-123.962;2022-08-21T11:19:33;101516.42;;;18.01;85.64
51067;BME280;37112;45.892;-123.962;2022-08-21T11:21:52;101513.25;;;18.01;85.56
51067;BME280;37112;45.892;-123.962;2022-08-21T11:24:15;101513.02;;;17.99;85.66